sensor_id;sensor_type;location;lat;lon;timestamp;temperature;humidity
20498;DHT22;10407;53.238;10.448;2023-01-16T00:01:50;5.70;99.90
20498;DHT22;10407;53.238;10.448;2023-01-16T00:04:18;6.00;99.90
20498;DHT22;10407;53.238;10.448;2023-01-16T00:06:46;5.80;99.90
20498;DHT22;10407;53.238;10.448;2023-01-16T00:09:14;5.80;99.90
20498;DHT22;10407;53.238;10.448;2023-01-16T00:11:41;5.70;99.90
20498;DHT22;10407;53.238;10.448;2023-01-16T00:14:09;5.80;99.90
20498;DHT22;10407;53.238;10.448;2023-01-16T00:16:36;5.70;99.90
20498;DHT22;10407;53.238;10.448;2023-01-16T00:19:04;5.90;99.90
20498;DHT22;10407;53.238;10.448;2023-01-16T00:21:31;5.80;99.90
20498;DHT22;10407;53.238;10.448;2023-01-16T00:23:59;5.80;99.90
20498;DHT22;10407;53.238;10.448;2023-01-16T00:26:28;5.80;99.90
20498;DHT22;10407;53.238;10.448;2023-01-16T00:28:56;5.80;99.90
20498;DHT22;10407;53.238;10.448;2023-01-16T00:31:23;5.80;99.90
20498;DHT22;10407;53.238;10.448;2023-01-16T00:33:52;5.90;99.90
20498;DHT22;10407;53.238;10.448;2023-01-16T00:36:20;5.90;99.90
20498;DHT22;10407;53.238;10.448;2023-01-16T00:38:48;5.80;99.90
20498;DHT22;10407;53.238;10.448;2023-01-16T00:41:15;5.90;99.90
20498;DHT22;10407;53.238;10.448;2023-01-16T00:43:43;6.00;99.90
20498;DHT22;10407;53.238;10.448;2023-01-16T00:46:10;6.00;99.90
20498;DHT22;10407;53.238;10.448;2023-01-16T00:48:38;5.90;99.90
20498;DHT22;10407;53.238;10.448;2023-01-16T00:51:06;5.70;99.90
20498;DHT22;10407;53.238;10.448;2023-01-16T00:53:33;6.00;99.90
20498;DHT22;10407;53.238;10.448;2023-01-16T00:56:01;5.90;99.90
20498;DHT22;10407;53.238;10.448;2023-01-16T00:58:28;5.90;99.90
20498;DHT22;10407;53.238;10.448;2023-01-16T01:00:56;5.70;99.90
20498;DHT22;10407;53.238;10.448;2023-01-16T01:03:23;6.00;99.90
20498;DHT22;10407;53.238;10.448;2023-01-16T01:05:51;5.90;99.90
20498;DHT22;10407;53.238;10.448;2023-01-16T01:08:18;5.80;99.90
20498;DHT22;10407;53.238;10.448;2023-01-16T01:10:46;5.90;99.90
20498;DHT22;10407;53.238;10.448;2023-01-16T01:13:13;5.80;99.90
20498;DHT22;10407;53.238;10.448;2023-01-16T01:15:41;5.70;99.90
20498;DHT22;10407;53.238;10.448;2023-01-16T01:18:08;5.90;99.90
20498;DHT22;10407;53.238;10.448;2023-01-16T01:20:36;5.70;99.90
20498;DHT22;10407;53.238;10.448;2023-01-16T01:23:03;5.80;99.90
20498;DHT22;10407;53.238;10.448;2023-01-16T01:25:31;5.90;99.90
20498;DHT22;10407;53.238;10.448;2023-01-16T01:27:58;5.90;99.90
20498;DHT22;10407;53.238;10.448;2023-01-16T01:30:26;5.90;99.90
20498;DHT22;10407;53.238;10.448;2023-01-16T01:32:54;5.70;99.90
20498;DHT22;10407;53.238;10.448;2023-01-16T01:35:21;5.70;99.90
20498;DHT22;10407;53.238;10.448;2023-01-16T01:37:48;5.80;99.90
20498;DHT22;10407;53.238;10.448;2023-01-16T01:40:16;5.90;99.90
20498;DHT22;10407;53.238;10.448;2023-01-16T01:42:44;5.90;99.90
20498;DHT22;10407;53.238;10.448;2023-01-16T01:45:27;5.90;99.90
20498;DHT22;10407;53.238;10.448;2023-01-16T01:53:12;5.80;99.90
20498;DHT22;10407;53.238;10.448;2023-01-16T01:55:40;5.80;99.90
20498;DHT22;10407;53.238;10.448;2023-01-16T01:58:09;6.00;99.90
20498;DHT22;10407;53.238;10.448;2023-01-16T02:00:37;6.00;99.90
20498;DHT22;10407;53.238;10.448;2023-01-16T02:03:15;6.10;99.90
20498;DHT22;10407;53.238;10.448;2023-01-16T02:05:42;6.10;99.90
20498;DHT22;10407;53.238;10.448;2023-01-16T02:08:13;6.00;99.90
20498;DHT22;10407;53.238;10.448;2023-01-16T02:10:43;6.00;99.90
20498;DHT22;10407;53.238;10.448;2023-01-16T02:13:11;6.00;99.90
20498;DHT22;10407;53.238;10.448;2023-01-16T02:15:39;6.10;99.90
20498;DHT22;10407;53.238;10.448;2023-01-16T02:18:09;5.90;99.90
20498;DHT22;10407;53.238;10.448;2023-01-16T02:21:11;5.90;99.90
20498;DHT22;10407;53.238;10.448;2023-01-16T02:24:32;5.90;99.90
20498;DHT22;10407;53.238;10.448;2023-01-16T02:26:24;6.00;99.90
20498;DHT22;10407;53.238;10.448;2023-01-16T02:29:14;6.00;99.90
20498;DHT22;10407;53.238;10.448;2023-01-16T02:37:49;6.00;99.90
20498;DHT22;10407;53.238;10.448;2023-01-16T02:40:27;6.10;99.90
20498;DHT22;10407;53.238;10.448;2023-01-16T02:43:19;6.00;99.90
20498;DHT22;10407;53.238;10.448;2023-01-16T02:48:32;5.90;99.90
20498;DHT22;10407;53.238;10.448;2023-01-16T02:51:06;5.90;99.90
20498;DHT22;10407;53.238;10.448;2023-01-16T02:53:42;5.90;99.90
20498;DHT22;10407;53.238;10.448;2023-01-16T02:56:36;5.80;99.90
20498;DHT22;10407;53.238;10.448;2023-01-16T02:59:02;5.90;99.90
20498;DHT22;10407;53.238;10.448;2023-01-16T03:01:32;5.90;99.90
20498;DHT22;10407;53.238;10.448;2023-01-16T03:04:02;5.90;99.90
20498;DHT22;10407;53.238;10.448;2023-01-16T03:06:42;5.70;99.90
20498;DHT22;10407;53.238;10.448;2023-01-16T03:09:21;5.80;99.90
20498;DHT22;10407;53.238;10.448;2023-01-16T03:12:06;5.90;99.90
20498;DHT22;10407;53.238;10.448;2023-01-16T03:17:37;5.90;99.90
20498;DHT22;10407;53.238;10.448;2023-01-16T03:23:07;6.00;99.90
20498;DHT22;10407;53.238;10.448;2023-01-16T03:25:43;6.00;99.90
20498;DHT22;10407;53.238;10.448;2023-01-16T03:28:35;6.00;99.90
20498;DHT22;10407;53.238;10.448;2023-01-16T03:31:14;6.00;99.90
20498;DHT22;10407;53.238;10.448;2023-01-16T03:33:53;6.00;99.90
20498;DHT22;10407;53.238;10.448;2023-01-16T03:36:27;5.90;99.90
20498;DHT22;10407;53.238;10.448;2023-01-16T03:38:55;6.00;99.90
20498;DHT22;10407;53.238;10.448;2023-01-16T03:41:25;5.90;99.90
20498;DHT22;10407;53.238;10.448;2023-01-16T03:44:01;5.90;99.90
20498;DHT22;10407;53.238;10.448;2023-01-16T03:46:29;5.80;99.90
20498;DHT22;10407;53.238;10.448;2023-01-16T03:49:06;5.80;99.90
20498;DHT22;10407;53.238;10.448;2023-01-16T03:51:37;5.80;99.90
20498;DHT22;10407;53.238;10.448;2023-01-16T03:54:07;5.80;99.90
20498;DHT22;10407;53.238;10.448;2023-01-16T03:56:52;5.90;99.90
20498;DHT22;10407;53.238;10.448;2023-01-16T03:59:16;5.90;99.90
20498;DHT22;10407;53.238;10.448;2023-01-16T04:01:47;5.90;99.90
20498;DHT22;10407;53.238;10.448;2023-01-16T04:04:26;5.90;99.90
20498;DHT22;10407;53.238;10.448;2023-01-16T04:07:11;5.90;99.90
20498;DHT22;10407;53.238;10.448;2023-01-16T04:09:38;6.00;99.90
20498;DHT22;10407;53.238;10.448;2023-01-16T04:12:06;5.80;99.90
20498;DHT22;10407;53.238;10.448;2023-01-16T04:14:35;5.80;99.90
20498;DHT22;10407;53.238;10.448;2023-01-16T04:17:04;5.90;99.90
20498;DHT22;10407;53.238;10.448;2023-01-16T04:19:33;5.90;99.90
20498;DHT22;10407;53.238;10.448;2023-01-16T04:22:08;5.90;99.90
20498;DHT22;10407;53.238;10.448;2023-01-16T04:24:32;5.90;99.90
20498;DHT22;10407;53.238;10.448;2023-01-16T04:27:00;5.80;99.90
20498;DHT22;10407;53.238;10.448;2023-01-16T04:29:28;5.80;99.90
20498;DHT22;10407;53.238;10.448;2023-01-16T04:31:55;5.70;99.90
20498;DHT22;10407;53.238;10.448;2023-01-16T04:34:23;5.70;99.90
20498;DHT22;10407;53.238;10.448;2023-01-16T04:36:50;5.80;99.90
20498;DHT22;10407;53.238;10.448;2023-01-16T04:39:18;5.80;99.90
20498;DHT22;10407;53.238;10.448;2023-01-16T04:41:45;5.60;99.90
20498;DHT22;10407;53.238;10.448;2023-01-16T04:44:14;5.50;99.90
20498;DHT22;10407;53.238;10.448;2023-01-16T04:46:42;5.50;99.90
20498;DHT22;10407;53.238;10.448;2023-01-16T04:49:10;5.50;99.90
20498;DHT22;10407;53.238;10.448;2023-01-16T04:51:38;5.40;99.90
20498;DHT22;10407;53.238;10.448;2023-01-16T04:54:07;5.40;99.90
20498;DHT22;10407;53.238;10.448;2023-01-16T04:56:35;5.40;99.90
20498;DHT22;10407;53.238;10.448;2023-01-16T04:59:02;5.30;99.90
20498;DHT22;10407;53.238;10.448;2023-01-16T05:01:30;5.10;99.90
20498;DHT22;10407;53.238;10.448;2023-01-16T05:03:59;5.30;99.90
20498;DHT22;10407;53.238;10.448;2023-01-16T05:06:27;5.20;99.90
20498;DHT22;10407;53.238;10.448;2023-01-16T05:08:54;5.20;99.90
20498;DHT22;10407;53.238;10.448;2023-01-16T05:11:22;5.20;99.90
20498;DHT22;10407;53.238;10.448;2023-01-16T05:13:49;5.10;99.90
20498;DHT22;10407;53.238;10.448;2023-01-16T05:16:17;5.10;99.90
20498;DHT22;10407;53.238;10.448;2023-01-16T05:18:44;5.10;99.90
20498;DHT22;10407;53.238;10.448;2023-01-16T05:21:12;5.20;99.90
20498;DHT22;10407;53.238;10.448;2023-01-16T05:23:39;5.20;99.90
20498;DHT22;10407;53.238;10.448;2023-01-16T05:26:07;5.10;99.90
20498;DHT22;10407;53.238;10.448;2023-01-16T05:28:35;5.10;99.90
20498;DHT22;10407;53.238;10.448;2023-01-16T05:31:03;5.10;99.90
20498;DHT22;10407;53.238;10.448;2023-01-16T05:33:31;5.20;99.90
20498;DHT22;10407;53.238;10.448;2023-01-16T05:35:59;5.30;99.90
20498;DHT22;10407;53.238;10.448;2023-01-16T05:38:26;5.20;99.90
20498;DHT22;10407;53.238;10.448;2023-01-16T05:40:54;5.40;99.90
20498;DHT22;10407;53.238;10.448;2023-01-16T05:43:21;5.30;99.90
20498;DHT22;10407;53.238;10.448;2023-01-16T05:45:49;5.30;99.90
20498;DHT22;10407;53.238;10.448;2023-01-16T05:48:17;5.30;99.90
20498;DHT22;10407;53.238;10.448;2023-01-16T05:50:44;5.10;99.90
20498;DHT22;10407;53.238;10.448;2023-01-16T05:53:12;5.30;99.90
20498;DHT22;10407;53.238;10.448;2023-01-16T05:55:44;5.40;99.90
20498;DHT22;10407;53.238;10.448;2023-01-16T05:58:14;5.40;99.90
20498;DHT22;10407;53.238;10.448;2023-01-16T06:00:42;5.40;99.90
20498;DHT22;10407;53.238;10.448;2023-01-16T06:03:09;5.30;99.90
20498;DHT22;10407;53.238;10.448;2023-01-16T06:05:37;5.40;99.90
20498;DHT22;10407;53.238;10.448;2023-01-16T06:08:05;5.50;99.90
20498;DHT22;10407;53.238;10.448;2023-01-16T06:10:32;5.40;99.90
20498;DHT22;10407;53.238;10.448;2023-01-16T06:13:03;5.40;99.90
20498;DHT22;10407;53.238;10.448;2023-01-16T06:15:31;5.40;99.90
20498;DHT22;10407;53.238;10.448;2023-01-16T06:17:58;5.30;99.90
20498;DHT22;10407;53.238;10.448;2023-01-16T06:20:26;5.30;99.90
20498;DHT22;10407;53.238;10.448;2023-01-16T06:22:53;5.20;99.90
20498;DHT22;10407;53.238;10.448;2023-01-16T06:25:21;5.10;99.90
20498;DHT22;10407;53.238;10.448;2023-01-16T06:27:50;5.10;99.90
20498;DHT22;10407;53.238;10.448;2023-01-16T06:30:18;5.10;99.90
20498;DHT22;10407;53.238;10.448;2023-01-16T06:32:49;5.00;99.90
20498;DHT22;10407;53.238;10.448;2023-01-16T06:35:17;5.00;99.90
20498;DHT22;10407;53.238;10.448;2023-01-16T06:37:45;4.70;99.90
20498;DHT22;10407;53.238;10.448;2023-01-16T06:40:13;4.70;99.90
20498;DHT22;10407;53.238;10.448;2023-01-16T06:42:41;4.70;99.90
20498;DHT22;10407;53.238;10.448;2023-01-16T06:45:08;4.80;99.90
20498;DHT22;10407;53.238;10.448;2023-01-16T06:47:36;4.80;99.90
20498;DHT22;10407;53.238;10.448;2023-01-16T06:50:04;4.80;99.90
20498;DHT22;10407;53.238;10.448;2023-01-16T06:52:32;4.60;99.90
20498;DHT22;10407;53.238;10.448;2023-01-16T06:55:01;4.70;99.90
20498;DHT22;10407;53.238;10.448;2023-01-16T06:57:29;4.70;99.90
20498;DHT22;10407;53.238;10.448;2023-01-16T06:59:56;4.70;99.90
20498;DHT22;10407;53.238;10.448;2023-01-16T07:02:24;4.70;99.90
20498;DHT22;10407;53.238;10.448;2023-01-16T07:04:51;4.80;99.90
20498;DHT22;10407;53.238;10.448;2023-01-16T07:07:19;4.70;99.90
20498;DHT22;10407;53.238;10.448;2023-01-16T07:09:46;4.70;99.90
20498;DHT22;10407;53.238;10.448;2023-01-16T07:12:14;4.70;99.90
20498;DHT22;10407;53.238;10.448;2023-01-16T07:14:41;4.70;99.90
20498;DHT22;10407;53.238;10.448;2023-01-16T07:17:27;4.60;99.90
20498;DHT22;10407;53.238;10.448;2023-01-16T07:20:12;4.70;99.90
20498;DHT22;10407;53.238;10.448;2023-01-16T07:22:58;4.70;99.90
20498;DHT22;10407;53.238;10.448;2023-01-16T07:25:31;4.70;99.90
20498;DHT22;10407;53.238;10.448;2023-01-16T07:27:58;4.70;99.90
20498;DHT22;10407;53.238;10.448;2023-01-16T07:30:26;4.80;99.90
20498;DHT22;10407;53.238;10.448;2023-01-16T07:32:54;4.70;99.90
20498;DHT22;10407;53.238;10.448;2023-01-16T07:35:22;4.80;99.90
20498;DHT22;10407;53.238;10.448;2023-01-16T07:37:49;4.80;99.90
20498;DHT22;10407;53.238;10.448;2023-01-16T07:40:18;4.70;99.90
20498;DHT22;10407;53.238;10.448;2023-01-16T07:42:46;4.90;99.90
20498;DHT22;10407;53.238;10.448;2023-01-16T07:45:14;4.90;99.90
20498;DHT22;10407;53.238;10.448;2023-01-16T07:47:42;4.80;99.90
20498;DHT22;10407;53.238;10.448;2023-01-16T07:50:10;4.80;99.90
20498;DHT22;10407;53.238;10.448;2023-01-16T07:52:38;5.00;99.90
20498;DHT22;10407;53.238;10.448;2023-01-16T07:55:05;5.20;99.90
20498;DHT22;10407;53.238;10.448;2023-01-16T07:57:35;5.30;99.90
20498;DHT22;10407;53.238;10.448;2023-01-16T08:00:04;5.50;99.90
20498;DHT22;10407;53.238;10.448;2023-01-16T08:02:32;5.60;99.90
20498;DHT22;10407;53.238;10.448;2023-01-16T08:05:00;5.40;99.90
20498;DHT22;10407;53.238;10.448;2023-01-16T08:07:27;5.60;99.90
20498;DHT22;10407;53.238;10.448;2023-01-16T08:09:55;5.70;99.90
20498;DHT22;10407;53.238;10.448;2023-01-16T08:12:22;5.80;99.90
20498;DHT22;10407;53.238;10.448;2023-01-16T08:14:50;5.80;99.90
20498;DHT22;10407;53.238;10.448;2023-01-16T08:17:18;6.00;99.90
20498;DHT22;10407;53.238;10.448;2023-01-16T08:19:45;5.90;99.90
20498;DHT22;10407;53.238;10.448;2023-01-16T08:22:13;6.10;99.90
20498;DHT22;10407;53.238;10.448;2023-01-16T08:24:40;6.00;99.90
20498;DHT22;10407;53.238;10.448;2023-01-16T08:27:08;5.60;99.90
20498;DHT22;10407;53.238;10.448;2023-01-16T08:29:35;5.50;99.90
20498;DHT22;10407;53.238;10.448;2023-01-16T08:32:03;5.30;99.90
20498;DHT22;10407;53.238;10.448;2023-01-16T08:34:30;5.20;99.90
20498;DHT22;10407;53.238;10.448;2023-01-16T08:36:58;4.90;99.90
20498;DHT22;10407;53.238;10.448;2023-01-16T08:39:25;5.20;99.90
20498;DHT22;10407;53.238;10.448;2023-01-16T08:41:53;5.10;99.90
20498;DHT22;10407;53.238;10.448;2023-01-16T08:44:39;5.20;99.90
20498;DHT22;10407;53.238;10.448;2023-01-16T08:47:25;5.10;99.90
20498;DHT22;10407;53.238;10.448;2023-01-16T08:50:13;5.10;99.90
20498;DHT22;10407;53.238;10.448;2023-01-16T08:52:59;5.20;99.90
20498;DHT22;10407;53.238;10.448;2023-01-16T08:55:27;5.30;99.90
20498;DHT22;10407;53.238;10.448;2023-01-16T08:57:55;5.20;99.90
20498;DHT22;10407;53.238;10.448;2023-01-16T09:00:24;5.30;99.90
20498;DHT22;10407;53.238;10.448;2023-01-16T09:02:53;5.40;99.90
20498;DHT22;10407;53.238;10.448;2023-01-16T09:05:23;5.30;99.90
20498;DHT22;10407;53.238;10.448;2023-01-16T09:07:50;5.40;99.90
20498;DHT22;10407;53.238;10.448;2023-01-16T09:10:18;5.30;99.90
20498;DHT22;10407;53.238;10.448;2023-01-16T09:12:46;5.40;99.90
20498;DHT22;10407;53.238;10.448;2023-01-16T09:15:31;5.30;99.90
20498;DHT22;10407;53.238;10.448;2023-01-16T09:17:59;5.20;99.90
20498;DHT22;10407;53.238;10.448;2023-01-16T09:20:26;5.40;99.90
20498;DHT22;10407;53.238;10.448;2023-01-16T09:22:58;5.40;99.90
20498;DHT22;10407;53.238;10.448;2023-01-16T09:25:27;5.40;99.90
20498;DHT22;10407;53.238;10.448;2023-01-16T09:27:55;5.40;99.90
20498;DHT22;10407;53.238;10.448;2023-01-16T09:30:22;5.50;99.90
20498;DHT22;10407;53.238;10.448;2023-01-16T09:32:50;5.40;99.90
20498;DHT22;10407;53.238;10.448;2023-01-16T09:35:17;5.20;99.90
20498;DHT22;10407;53.238;10.448;2023-01-16T09:37:45;5.50;99.90
20498;DHT22;10407;53.238;10.448;2023-01-16T09:40:18;5.60;99.90
20498;DHT22;10407;53.238;10.448;2023-01-16T09:43:16;5.40;99.90
20498;DHT22;10407;53.238;10.448;2023-01-16T09:46:01;5.40;99.90
20498;DHT22;10407;53.238;10.448;2023-01-16T09:48:32;5.40;99.90
20498;DHT22;10407;53.238;10.448;2023-01-16T09:51:07;5.50;99.90
20498;DHT22;10407;53.238;10.448;2023-01-16T09:53:39;5.40;99.90
20498;DHT22;10407;53.238;10.448;2023-01-16T09:56:27;5.60;99.90
20498;DHT22;10407;53.238;10.448;2023-01-16T09:59:20;5.60;99.90
20498;DHT22;10407;53.238;10.448;2023-01-16T10:01:53;5.70;99.90
20498;DHT22;10407;53.238;10.448;2023-01-16T10:04:22;5.70;99.90
20498;DHT22;10407;53.238;10.448;2023-01-16T10:12:05;6.40;99.90
20498;DHT22;10407;53.238;10.448;2023-01-16T10:22:25;6.60;99.90
20498;DHT22;10407;53.238;10.448;2023-01-16T10:32:43;6.70;99.90
20498;DHT22;10407;53.238;10.448;2023-01-16T10:35:34;6.70;99.90
20498;DHT22;10407;53.238;10.448;2023-01-16T10:38:47;6.40;99.90
20498;DHT22;10407;53.238;10.448;2023-01-16T10:41:20;6.80;99.90
20498;DHT22;10407;53.238;10.448;2023-01-16T10:44:29;6.80;99.90
20498;DHT22;10407;53.238;10.448;2023-01-16T10:47:15;6.90;99.90
20498;DHT22;10407;53.238;10.448;2023-01-16T10:50:00;6.90;99.90
20498;DHT22;10407;53.238;10.448;2023-01-16T10:52:28;7.00;99.90
20498;DHT22;10407;53.238;10.448;2023-01-16T10:54:58;6.90;99.90
20498;DHT22;10407;53.238;10.448;2023-01-16T10:57:27;6.70;99.90
20498;DHT22;10407;53.238;10.448;2023-01-16T10:59:58;6.70;99.90
20498;DHT22;10407;53.238;10.448;2023-01-16T11:02:40;6.50;99.90
20498;DHT22;10407;53.238;10.448;2023-01-16T11:05:29;6.50;99.90
20498;DHT22;10407;53.238;10.448;2023-01-16T11:08:32;6.40;99.90
20498;DHT22;10407;53.238;10.448;2023-01-16T11:10:34;6.40;99.90
20498;DHT22;10407;53.238;10.448;2023-01-16T11:13:01;6.30;99.90
20498;DHT22;10407;53.238;10.448;2023-01-16T11:16:00;6.30;99.90
20498;DHT22;10407;53.238;10.448;2023-01-16T11:18:46;6.20;99.90
20498;DHT22;10407;53.238;10.448;2023-01-16T11:21:37;6.20;99.90
20498;DHT22;10407;53.238;10.448;2023-01-16T11:23:47;6.30;99.90
20498;DHT22;10407;53.238;10.448;2023-01-16T11:26:16;6.00;99.90
20498;DHT22;10407;53.238;10.448;2023-01-16T11:28:46;6.10;99.90
20498;DHT22;10407;53.238;10.448;2023-01-16T11:31:22;6.30;99.90
20498;DHT22;10407;53.238;10.448;2023-01-16T11:33:54;6.20;99.90
20498;DHT22;10407;53.238;10.448;2023-01-16T11:36:25;6.20;99.90
20498;DHT22;10407;53.238;10.448;2023-01-16T11:38:53;6.00;99.90
20498;DHT22;10407;53.238;10.448;2023-01-16T11:41:28;6.30;99.90
20498;DHT22;10407;53.238;10.448;2023-01-16T11:44:13;6.30;99.90
20498;DHT22;10407;53.238;10.448;2023-01-16T11:47:00;6.50;99.90
20498;DHT22;10407;53.238;10.448;2023-01-16T11:49:33;6.40;99.90
20498;DHT22;10407;53.238;10.448;2023-01-16T11:52:01;6.30;99.90
20498;DHT22;10407;53.238;10.448;2023-01-16T11:54:34;6.30;99.90
20498;DHT22;10407;53.238;10.448;2023-01-16T12:05:33;6.20;99.90
20498;DHT22;10407;53.238;10.448;2023-01-16T12:17:10;6.30;99.90
20498;DHT22;10407;53.238;10.448;2023-01-16T12:22:36;6.30;99.90
20498;DHT22;10407;53.238;10.448;2023-01-16T12:28:12;6.40;99.90
20498;DHT22;10407;53.238;10.448;2023-01-16T12:30:49;6.50;99.90
20498;DHT22;10407;53.238;10.448;2023-01-16T12:33:29;6.30;99.90
20498;DHT22;10407;53.238;10.448;2023-01-16T12:36:14;6.20;99.90
20498;DHT22;10407;53.238;10.448;2023-01-16T12:38:57;6.20;99.90
20498;DHT22;10407;53.238;10.448;2023-01-16T12:41:24;6.20;99.90
20498;DHT22;10407;53.238;10.448;2023-01-16T12:44:36;6.10;99.90
20498;DHT22;10407;53.238;10.448;2023-01-16T12:55:38;6.10;99.90
20498;DHT22;10407;53.238;10.448;2023-01-16T12:58:18;6.10;99.90
20498;DHT22;10407;53.238;10.448;2023-01-16T13:05:55;6.10;99.90
20498;DHT22;10407;53.238;10.448;2023-01-16T13:08:36;6.10;99.90
20498;DHT22;10407;53.238;10.448;2023-01-16T13:11:12;6.10;99.90
20498;DHT22;10407;53.238;10.448;2023-01-16T13:14:00;6.10;99.90
20498;DHT22;10407;53.238;10.448;2023-01-16T13:19:17;6.20;99.90
20498;DHT22;10407;53.238;10.448;2023-01-16T13:21:57;6.20;99.90
20498;DHT22;10407;53.238;10.448;2023-01-16T13:24:39;6.30;99.90
20498;DHT22;10407;53.238;10.448;2023-01-16T13:27:11;6.10;99.90
20498;DHT22;10407;53.238;10.448;2023-01-16T13:29:44;6.30;99.90
20498;DHT22;10407;53.238;10.448;2023-01-16T13:32:31;6.20;99.90
20498;DHT22;10407;53.238;10.448;2023-01-16T13:38:28;6.20;99.90
20498;DHT22;10407;53.238;10.448;2023-01-16T13:43:49;6.00;99.90
20498;DHT22;10407;53.238;10.448;2023-01-16T13:46:31;6.10;99.90
20498;DHT22;10407;53.238;10.448;2023-01-16T13:49:01;6.10;99.90
20498;DHT22;10407;53.238;10.448;2023-01-16T13:51:30;6.00;99.90
20498;DHT22;10407;53.238;10.448;2023-01-16T13:53:59;6.10;99.90
20498;DHT22;10407;53.238;10.448;2023-01-16T13:56:30;6.00;99.90
20498;DHT22;10407;53.238;10.448;2023-01-16T13:59:00;6.00;99.90
20498;DHT22;10407;53.238;10.448;2023-01-16T14:01:34;6.00;99.90
20498;DHT22;10407;53.238;10.448;2023-01-16T14:06:50;5.90;99.90
20498;DHT22;10407;53.238;10.448;2023-01-16T14:09:23;6.00;99.90
20498;DHT22;10407;53.238;10.448;2023-01-16T14:12:19;5.90;99.90
20498;DHT22;10407;53.238;10.448;2023-01-16T14:20:36;5.90;99.90
20498;DHT22;10407;53.238;10.448;2023-01-16T14:23:04;6.00;99.90
20498;DHT22;10407;53.238;10.448;2023-01-16T14:25:56;5.90;99.90
20498;DHT22;10407;53.238;10.448;2023-01-16T14:28:27;6.10;99.90
20498;DHT22;10407;53.238;10.448;2023-01-16T14:30:54;6.00;99.90
20498;DHT22;10407;53.238;10.448;2023-01-16T14:33:22;6.00;99.90
20498;DHT22;10407;53.238;10.448;2023-01-16T14:35:52;6.10;99.90
20498;DHT22;10407;53.238;10.448;2023-01-16T14:38:23;6.00;99.90
20498;DHT22;10407;53.238;10.448;2023-01-16T14:41:04;6.00;99.90
20498;DHT22;10407;53.238;10.448;2023-01-16T14:44:13;6.10;99.90
20498;DHT22;10407;53.238;10.448;2023-01-16T14:47:23;6.10;99.90
20498;DHT22;10407;53.238;10.448;2023-01-16T14:50:14;6.10;99.90
20498;DHT22;10407;53.238;10.448;2023-01-16T14:56:04;6.00;99.90
20498;DHT22;10407;53.238;10.448;2023-01-16T14:58:41;6.00;99.90
20498;DHT22;10407;53.238;10.448;2023-01-16T15:01:14;6.00;99.90
20498;DHT22;10407;53.238;10.448;2023-01-16T15:03:43;6.00;99.90
20498;DHT22;10407;53.238;10.448;2023-01-16T15:06:13;5.90;99.90
20498;DHT22;10407;53.238;10.448;2023-01-16T15:08:41;5.90;99.90
20498;DHT22;10407;53.238;10.448;2023-01-16T15:14:11;5.80;99.90
20498;DHT22;10407;53.238;10.448;2023-01-16T15:20:23;5.90;99.90
20498;DHT22;10407;53.238;10.448;2023-01-16T15:22:38;5.70;99.90
20498;DHT22;10407;53.238;10.448;2023-01-16T15:25:10;5.80;99.90
20498;DHT22;10407;53.238;10.448;2023-01-16T15:27:36;5.80;99.90
20498;DHT22;10407;53.238;10.448;2023-01-16T15:30:12;5.80;99.90
20498;DHT22;10407;53.238;10.448;2023-01-16T15:32:53;5.80;99.90
20498;DHT22;10407;53.238;10.448;2023-01-16T15:35:22;5.80;99.90
20498;DHT22;10407;53.238;10.448;2023-01-16T15:37:55;5.60;99.90
20498;DHT22;10407;53.238;10.448;2023-01-16T15:40:26;5.60;99.90
20498;DHT22;10407;53.238;10.448;2023-01-16T15:42:55;5.60;99.90
20498;DHT22;10407;53.238;10.448;2023-01-16T15:49:03;5.60;99.90
20498;DHT22;10407;53.238;10.448;2023-01-16T15:51:29;5.60;99.90
20498;DHT22;10407;53.238;10.448;2023-01-16T15:53:57;5.50;99.90
20498;DHT22;10407;53.238;10.448;2023-01-16T15:56:41;5.50;99.90
20498;DHT22;10407;53.238;10.448;2023-01-16T16:01:51;5.60;99.90
20498;DHT22;10407;53.238;10.448;2023-01-16T16:04:20;5.50;99.90
20498;DHT22;10407;53.238;10.448;2023-01-16T16:06:49;5.60;99.90
20498;DHT22;10407;53.238;10.448;2023-01-16T16:09:22;5.60;99.90
20498;DHT22;10407;53.238;10.448;2023-01-16T16:11:51;5.60;99.90
20498;DHT22;10407;53.238;10.448;2023-01-16T16:17:19;5.60;99.90
20498;DHT22;10407;53.238;10.448;2023-01-16T16:23:04;5.70;99.90
20498;DHT22;10407;53.238;10.448;2023-01-16T16:25:38;5.70;99.90
20498;DHT22;10407;53.238;10.448;2023-01-16T16:28:18;5.70;99.90
20498;DHT22;10407;53.238;10.448;2023-01-16T16:30:42;5.60;99.90
20498;DHT22;10407;53.238;10.448;2023-01-16T16:33:19;5.60;99.90
20498;DHT22;10407;53.238;10.448;2023-01-16T16:35:56;5.60;99.90
20498;DHT22;10407;53.238;10.448;2023-01-16T16:38:26;5.60;99.90
20498;DHT22;10407;53.238;10.448;2023-01-16T16:49:09;5.60;99.90
20498;DHT22;10407;53.238;10.448;2023-01-16T16:51:29;5.60;99.90
20498;DHT22;10407;53.238;10.448;2023-01-16T16:54:11;5.60;99.90
20498;DHT22;10407;53.238;10.448;2023-01-16T16:56:56;5.60;99.90
20498;DHT22;10407;53.238;10.448;2023-01-16T16:59:21;5.50;99.90
20498;DHT22;10407;53.238;10.448;2023-01-16T17:01:56;5.60;99.90
20498;DHT22;10407;53.238;10.448;2023-01-16T17:04:25;5.60;99.90
20498;DHT22;10407;53.238;10.448;2023-01-16T17:06:53;5.60;99.90
20498;DHT22;10407;53.238;10.448;2023-01-16T17:09:21;5.60;99.90
20498;DHT22;10407;53.238;10.448;2023-01-16T17:11:49;5.60;99.90
20498;DHT22;10407;53.238;10.448;2023-01-16T17:14:16;5.60;99.90
20498;DHT22;10407;53.238;10.448;2023-01-16T17:16:44;5.60;99.90
20498;DHT22;10407;53.238;10.448;2023-01-16T17:19:32;5.60;99.90
20498;DHT22;10407;53.238;10.448;2023-01-16T17:21:45;5.60;99.90
20498;DHT22;10407;53.238;10.448;2023-01-16T17:24:15;5.60;99.90
20498;DHT22;10407;53.238;10.448;2023-01-16T17:26:43;5.60;99.90
20498;DHT22;10407;53.238;10.448;2023-01-16T17:29:11;5.60;99.90
20498;DHT22;10407;53.238;10.448;2023-01-16T17:31:40;5.60;99.90
20498;DHT22;10407;53.238;10.448;2023-01-16T17:34:13;5.60;99.90
20498;DHT22;10407;53.238;10.448;2023-01-16T17:36:41;5.60;99.90
20498;DHT22;10407;53.238;10.448;2023-01-16T17:39:09;5.60;99.90
20498;DHT22;10407;53.238;10.448;2023-01-16T17:41:38;5.60;99.90
20498;DHT22;10407;53.238;10.448;2023-01-16T17:44:21;5.50;99.90
20498;DHT22;10407;53.238;10.448;2023-01-16T17:47:09;5.50;99.90
20498;DHT22;10407;53.238;10.448;2023-01-16T17:49:37;5.60;99.90
20498;DHT22;10407;53.238;10.448;2023-01-16T17:52:09;5.60;99.90
20498;DHT22;10407;53.238;10.448;2023-01-16T17:54:36;5.60;99.90
20498;DHT22;10407;53.238;10.448;2023-01-16T17:57:22;5.50;99.90
20498;DHT22;10407;53.238;10.448;2023-01-16T17:59:49;5.50;99.90
20498;DHT22;10407;53.238;10.448;2023-01-16T18:02:17;5.50;99.90
20498;DHT22;10407;53.238;10.448;2023-01-16T18:04:44;5.50;99.90
20498;DHT22;10407;53.238;10.448;2023-01-16T18:07:12;5.40;99.90